Time;durP1;ratioP1;P1;durP2;ratioP2;P2;SDS_P1;SDS_P2;PMS_P1;PMS_P2;Temp;Humidity;BMP_temperature;BMP_pressure;BME280_temperature;BME280_humidity;BME280_pressure;Samples;Min_cycle;Max_cycle;Signal;HPM_P1;HPM_P2
2021/09/24 00:00:57;;;;;;;4.97;1.27;;;;;;;;;;5062696;28;20054;-66
2021/09/24 00:03:24;;;;;;;3.70;0.80;;;;;;;;;;5061558;28;20052;-66
2021/09/24 00:05:52;;;;;;;2.88;1.33;;;;;;;;;;5062855;28;20049;-65
2021/09/24 00:08:19;;;;;;;2.67;1.02;;;;;;;;;;5056238;28;20123;-66
2021/09/24 00:10:46;;;;;;;1.20;0.90;;;;;;;;;;5073352;28;20021;-65
2021/09/24 00:13:13;;;;;;;3.10;1.27;;;;;;;;;;5059711;28;20024;-66
2021/09/24 00:15:41;;;;;;;1.45;0.75;;;;;;;;;;5067755;28;20040;-66
2021/09/24 00:18:08;;;;;;;2.60;0.88;;;;;;;;;;5062881;28;20028;-65
2021/09/24 00:20:35;;;;;;;1.65;1.17;;;;;;;;;;5065248;28;20043;-65
2021/09/24 00:23:03;;;;;;;3.80;1.20;;;;;;;;;;5067128;28;20029;-65
2021/09/24 00:25:31;;;;;;;4.28;1.25;;;;;;;;;;5073947;28;20021;-65
2021/09/24 00:27:59;;;;;;;2.50;1.05;;;;;;;;;;5065128;28;20041;-66
2021/09/24 00:30:26;;;;;;;4.75;1.83;;;;;;;;;;5061442;28;20115;-66
2021/09/24 00:32:53;;;;;;;2.35;1.23;;;;;;;;;;5056515;28;20041;-66
2021/09/24 00:35:21;;;;;;;2.35;0.90;;;;;;;;;;5072708;28;20025;-66
2021/09/24 00:37:48;;;;;;;2.72;0.90;;;;;;;;;;5063602;28;20025;-66
2021/09/24 00:40:15;;;;;;;1.55;1.02;;;;;;;;;;5070924;28;20056;-67
2021/09/24 00:42:42;;;;;;;3.53;0.95;;;;;;;;;;5065616;28;20044;-66
2021/09/24 00:45:10;;;;;;;3.92;1.10;;;;;;;;;;5063576;28;20018;-66
2021/09/24 00:47:37;;;;;;;9.65;2.17;;;;;;;;;;5070173;28;20024;-67
2021/09/24 00:50:05;;;;;;;3.72;1.38;;;;;;;;;;5064521;28;20014;-66
2021/09/24 00:52:32;;;;;;;2.33;1.10;;;;;;;;;;5071189;28;20199;-66
2021/09/24 00:55:00;;;;;;;6.05;2.10;;;;;;;;;;5075669;28;20047;-66
2021/09/24 00:57:27;;;;;;;15.57;3.33;;;;;;;;;;5068855;28;20013;-66
2021/09/24 00:59:55;;;;;;;5.03;1.23;;;;;;;;;;5060962;28;20808;-66
2021/09/24 01:02:22;;;;;;;3.63;1.08;;;;;;;;;;5062517;28;20028;-66
2021/09/24 01:04:49;;;;;;;2.20;0.80;;;;;;;;;;5063493;28;20024;-66
2021/09/24 01:07:16;;;;;;;1.67;1.00;;;;;;;;;;5061905;28;20025;-67
2021/09/24 01:09:43;;;;;;;1.90;0.65;;;;;;;;;;5072622;28;20797;-68
2021/09/24 01:12:11;;;;;;;2.65;0.70;;;;;;;;;;5057589;28;20033;-67
2021/09/24 01:14:38;;;;;;;6.72;1.05;;;;;;;;;;5060132;28;20020;-67
2021/09/24 01:17:05;;;;;;;3.17;0.73;;;;;;;;;;5054772;28;20033;-66
2021/09/24 01:19:32;;;;;;;4.00;1.48;;;;;;;;;;5069632;28;20067;-66
2021/09/24 01:22:00;;;;;;;2.38;0.50;;;;;;;;;;5060247;28;20017;-66
2021/09/24 01:24:27;;;;;;;2.03;0.63;;;;;;;;;;5060441;28;20045;-68
2021/09/24 01:26:55;;;;;;;1.65;0.68;;;;;;;;;;5066786;28;20064;-67
2021/09/24 01:29:24;;;;;;;2.55;1.08;;;;;;;;;;5071212;28;20029;-69
2021/09/24 01:31:51;;;;;;;2.42;0.70;;;;;;;;;;5067241;28;20045;-68
2021/09/24 01:34:18;;;;;;;3.47;0.80;;;;;;;;;;5062985;28;20065;-68
2021/09/24 01:36:45;;;;;;;2.60;1.00;;;;;;;;;;5054328;28;20044;-67
2021/09/24 01:39:12;;;;;;;2.97;0.75;;;;;;;;;;5045224;28;21209;-67
2021/09/24 01:41:41;;;;;;;3.80;0.68;;;;;;;;;;5050440;28;20021;-69
2021/09/24 01:44:08;;;;;;;2.85;0.45;;;;;;;;;;5055020;28;20048;-67
2021/09/24 01:46:39;;;;;;;1.67;0.45;;;;;;;;;;5050050;28;20060;-68
2021/09/24 01:49:06;;;;;;;3.00;0.50;;;;;;;;;;5042870;28;20021;-69
2021/09/24 01:51:39;;;;;;;0.80;0.50;;;;;;;;;;5049487;28;20025;-68
2021/09/24 01:54:06;;;;;;;5.88;0.70;;;;;;;;;;5054314;28;20025;-68
2021/09/24 01:56:34;;;;;;;1.50;0.60;;;;;;;;;;5064085;28;20008;-67
2021/09/24 01:59:01;;;;;;;2.65;0.50;;;;;;;;;;5064176;28;20118;-68
2021/09/24 02:01:28;;;;;;;1.00;0.50;;;;;;;;;;5061640;28;20085;-70
2021/09/24 02:03:55;;;;;;;1.10;0.50;;;;;;;;;;5054970;28;20053;-69
2021/09/24 02:06:22;;;;;;;2.17;0.47;;;;;;;;;;5052923;28;20060;-69
2021/09/24 02:08:49;;;;;;;3.53;0.85;;;;;;;;;;5057929;28;20048;-69
2021/09/24 02:11:16;;;;;;;4.95;0.65;;;;;;;;;;5059107;28;20624;-69
2021/09/24 02:13:44;;;;;;;2.80;0.50;;;;;;;;;;5068331;28;20032;-69
2021/09/24 02:16:12;;;;;;;0.80;0.38;;;;;;;;;;5055872;28;20553;-69
2021/09/24 02:18:40;;;;;;;2.97;0.80;;;;;;;;;;5053603;28;20028;-69
2021/09/24 02:21:08;;;;;;;1.45;0.40;;;;;;;;;;5056292;28;20120;-70
2021/09/24 02:23:35;;;;;;;3.17;0.40;;;;;;;;;;5055118;28;20020;-70
2021/09/24 02:26:02;;;;;;;3.72;0.40;;;;;;;;;;5064396;28;20108;-68
2021/09/24 02:28:29;;;;;;;4.15;0.40;;;;;;;;;;5058153;28;20044;-67
2021/09/24 02:31:00;;;;;;;4.00;0.50;;;;;;;;;;5053441;28;20565;-69
2021/09/24 02:33:27;;;;;;;1.25;0.50;;;;;;;;;;5050758;28;20030;-70
2021/09/24 02:35:54;;;;;;;2.80;0.60;;;;;;;;;;5055696;28;20033;-71
2021/09/24 02:38:21;;;;;;;1.33;0.57;;;;;;;;;;5059902;28;20044;-71
2021/09/24 02:40:48;;;;;;;3.20;0.57;;;;;;;;;;5080849;28;20059;-70
2021/09/24 02:43:15;;;;;;;2.97;0.45;;;;;;;;;;5063015;28;20031;-70
2021/09/24 02:45:42;;;;;;;2.83;0.82;;;;;;;;;;5056506;28;20021;-71
2021/09/24 02:48:10;;;;;;;0.70;0.50;;;;;;;;;;5065150;28;20043;-69
2021/09/24 02:50:37;;;;;;;0.85;0.60;;;;;;;;;;5055072;28;20048;-70
2021/09/24 02:53:04;;;;;;;3.22;0.70;;;;;;;;;;5057667;28;20021;-69
2021/09/24 02:55:32;;;;;;;4.43;0.52;;;;;;;;;;5057144;28;20033;-71
2021/09/24 02:57:59;;;;;;;1.23;0.50;;;;;;;;;;5067348;28;20033;-71
2021/09/24 03:00:27;;;;;;;3.30;0.38;;;;;;;;;;5065084;28;20060;-70
2021/09/24 03:02:54;;;;;;;2.53;0.50;;;;;;;;;;5066107;28;20024;-69
2021/09/24 03:05:22;;;;;;;1.50;0.43;;;;;;;;;;5066947;28;20039;-71
2021/09/24 03:07:49;;;;;;;1.98;0.73;;;;;;;;;;5060977;28;20036;-70
2021/09/24 03:10:16;;;;;;;1.88;0.50;;;;;;;;;;5060256;28;20048;-71
2021/09/24 03:12:43;;;;;;;2.13;0.57;;;;;;;;;;5068279;28;20028;-72
2021/09/24 03:15:11;;;;;;;1.45;0.50;;;;;;;;;;5067299;28;20036;-71
2021/09/24 03:17:38;;;;;;;2.50;0.77;;;;;;;;;;5066614;28;20052;-71
2021/09/24 03:20:07;;;;;;;1.85;0.60;;;;;;;;;;5063410;28;20040;-70
2021/09/24 03:22:37;;;;;;;2.42;0.50;;;;;;;;;;5059396;28;20033;-70
2021/09/24 03:25:05;;;;;;;3.15;0.52;;;;;;;;;;5058041;28;20030;-70
2021/09/24 03:27:35;;;;;;;2.08;0.50;;;;;;;;;;5064803;28;20056;-68
2021/09/24 03:30:04;;;;;;;1.45;0.40;;;;;;;;;;5056974;28;20036;-69
2021/09/24 03:32:31;;;;;;;5.78;1.15;;;;;;;;;;5065091;28;20053;-69
2021/09/24 03:34:59;;;;;;;5.93;0.63;;;;;;;;;;5054932;28;20071;-71
2021/09/24 03:37:27;;;;;;;2.35;0.60;;;;;;;;;;5057193;28;20008;-71
2021/09/24 03:39:54;;;;;;;3.28;0.60;;;;;;;;;;5062652;28;20040;-68
2021/09/24 03:42:21;;;;;;;2.33;0.40;;;;;;;;;;5051707;28;20112;-72
2021/09/24 03:44:48;;;;;;;0.57;0.45;;;;;;;;;;5057494;28;20108;-72
2021/09/24 03:47:15;;;;;;;3.13;0.77;;;;;;;;;;5049512;28;20032;-71
2021/09/24 03:49:43;;;;;;;2.08;0.80;;;;;;;;;;5060620;28;20029;-72
2021/09/24 03:52:10;;;;;;;3.33;0.60;;;;;;;;;;5061214;28;20228;-69
2021/09/24 03:54:37;;;;;;;2.72;1.00;;;;;;;;;;5058476;28;20044;-71
2021/09/24 03:57:04;;;;;;;1.35;0.70;;;;;;;;;;5053819;28;20090;-71
2021/09/24 03:59:32;;;;;;;1.95;0.60;;;;;;;;;;5056898;28;20045;-69
2021/09/24 04:01:59;;;;;;;2.53;0.70;;;;;;;;;;5058001;28;20059;-68
2021/09/24 04:04:26;;;;;;;2.58;0.60;;;;;;;;;;5069167;28;20017;-68
2021/09/24 04:06:53;;;;;;;1.08;0.50;;;;;;;;;;5068026;28;20013;-67
2021/09/24 04:09:20;;;;;;;0.68;0.60;;;;;;;;;;5065814;28;20013;-67
2021/09/24 04:11:47;;;;;;;2.17;0.60;;;;;;;;;;5065007;28;20452;-67
2021/09/24 04:14:14;;;;;;;2.33;0.80;;;;;;;;;;5068670;28;20034;-66
2021/09/24 04:16:41;;;;;;;1.58;0.52;;;;;;;;;;5069345;28;20068;-66
2021/09/24 04:19:08;;;;;;;2.25;0.50;;;;;;;;;;5070702;28;20037;-66
2021/09/24 04:21:38;;;;;;;2.63;0.82;;;;;;;;;;5063524;28;20013;-67
2021/09/24 04:24:06;;;;;;;2.55;0.50;;;;;;;;;;5067581;28;20037;-67
2021/09/24 04:26:33;;;;;;;3.05;0.60;;;;;;;;;;5064891;28;20108;-67
2021/09/24 04:29:00;;;;;;;1.33;0.70;;;;;;;;;;5062636;28;20037;-66
2021/09/24 04:31:29;;;;;;;3.65;0.50;;;;;;;;;;5058630;28;20044;-65
2021/09/24 04:33:56;;;;;;;1.73;0.55;;;;;;;;;;5061853;28;20050;-65
2021/09/24 04:36:23;;;;;;;1.60;0.55;;;;;;;;;;5066546;28;20048;-66
2021/09/24 04:38:50;;;;;;;1.48;0.60;;;;;;;;;;5064529;28;20076;-65
2021/09/24 04:41:20;;;;;;;1.38;0.40;;;;;;;;;;5069115;28;20029;-65
2021/09/24 04:43:48;;;;;;;1.00;0.50;;;;;;;;;;5061029;28;20036;-66
2021/09/24 04:46:15;;;;;;;1.02;0.60;;;;;;;;;;5064692;28;20024;-66
2021/09/24 04:48:42;;;;;;;3.80;0.50;;;;;;;;;;5064531;28;20021;-65
2021/09/24 04:51:09;;;;;;;2.25;0.77;;;;;;;;;;5062221;28;20080;-65
2021/09/24 04:53:36;;;;;;;1.23;0.40;;;;;;;;;;5064259;28;22056;-66
2021/09/24 04:56:03;;;;;;;1.05;0.40;;;;;;;;;;5066794;28;20052;-66
2021/09/24 04:58:30;;;;;;;0.70;0.50;;;;;;;;;;5066080;28;20077;-67
2021/09/24 05:00:57;;;;;;;1.17;0.40;;;;;;;;;;5072356;28;20088;-66
2021/09/24 05:03:25;;;;;;;5.60;0.50;;;;;;;;;;5065981;28;20009;-66
2021/09/24 05:05:52;;;;;;;3.42;0.82;;;;;;;;;;5076311;28;20036;-66
2021/09/24 05:08:19;;;;;;;0.40;0.35;;;;;;;;;;5060554;28;20014;-66
2021/09/24 05:10:46;;;;;;;3.42;0.70;;;;;;;;;;5062874;28;20022;-66
2021/09/24 05:13:13;;;;;;;1.65;0.40;;;;;;;;;;5065374;28;20044;-66
2021/09/24 05:15:40;;;;;;;2.03;0.35;;;;;;;;;;5073711;28;20077;-66
2021/09/24 05:18:07;;;;;;;2.55;0.70;;;;;;;;;;5070713;28;20669;-67
2021/09/24 05:20:35;;;;;;;0.60;0.50;;;;;;;;;;5074388;28;20025;-67
2021/09/24 05:23:02;;;;;;;2.20;0.47;;;;;;;;;;5074628;28;20358;-67
2021/09/24 05:25:29;;;;;;;2.28;0.60;;;;;;;;;;5075312;28;20077;-67
2021/09/24 05:27:57;;;;;;;1.92;0.60;;;;;;;;;;5076480;28;20640;-66
2021/09/24 05:30:25;;;;;;;0.55;0.43;;;;;;;;;;5074101;28;20017;-67
2021/09/24 05:32:53;;;;;;;2.35;0.50;;;;;;;;;;5064757;28;20021;-68
2021/09/24 05:35:20;;;;;;;1.23;0.50;;;;;;;;;;5074425;28;20029;-67
2021/09/24 05:37:49;;;;;;;2.20;0.38;;;;;;;;;;5080682;28;20077;-68
2021/09/24 05:40:16;;;;;;;0.70;0.40;;;;;;;;;;5078139;28;20017;-67
2021/09/24 05:42:43;;;;;;;1.55;0.40;;;;;;;;;;5079344;28;20013;-66
2021/09/24 05:45:13;;;;;;;2.47;0.55;;;;;;;;;;5077656;28;20078;-67
2021/09/24 05:47:41;;;;;;;3.30;0.73;;;;;;;;;;5062710;28;20014;-67
2021/09/24 05:50:12;;;;;;;1.85;0.50;;;;;;;;;;5065982;28;20044;-67
2021/09/24 05:52:40;;;;;;;1.75;0.50;;;;;;;;;;5069868;28;20237;-67
2021/09/24 05:55:08;;;;;;;2.35;0.50;;;;;;;;;;5073219;28;20013;-67
2021/09/24 05:57:35;;;;;;;0.57;0.45;;;;;;;;;;5075338;28;20024;-67
2021/09/24 06:00:02;;;;;;;3.08;0.98;;;;;;;;;;5068696;28;20024;-67
2021/09/24 06:02:29;;;;;;;1.65;0.40;;;;;;;;;;5071645;28;20029;-67
2021/09/24 06:04:56;;;;;;;1.38;0.47;;;;;;;;;;5067459;28;20040;-68
2021/09/24 06:07:23;;;;;;;0.80;0.30;;;;;;;;;;5061356;28;20026;-66
2021/09/24 06:09:50;;;;;;;3.15;0.43;;;;;;;;;;5071729;28;20053;-67
2021/09/24 06:12:18;;;;;;;1.67;0.57;;;;;;;;;;5068644;28;20017;-67
2021/09/24 06:14:45;;;;;;;1.65;0.90;;;;;;;;;;5070128;28;20040;-67
2021/09/24 06:17:12;;;;;;;2.38;0.55;;;;;;;;;;5070207;28;20018;-67
2021/09/24 06:19:39;;;;;;;2.40;0.50;;;;;;;;;;5069661;28;20037;-68
2021/09/24 06:22:07;;;;;;;3.22;0.60;;;;;;;;;;5068533;28;20086;-66
2021/09/24 06:24:36;;;;;;;3.35;0.85;;;;;;;;;;5067169;28;20009;-67
2021/09/24 06:27:03;;;;;;;1.52;0.50;;;;;;;;;;5070092;28;20021;-66
2021/09/24 06:29:30;;;;;;;0.95;0.50;;;;;;;;;;5064023;28;20013;-68
2021/09/24 06:31:57;;;;;;;1.15;0.50;;;;;;;;;;5076873;28;20031;-66
2021/09/24 06:34:25;;;;;;;1.88;0.38;;;;;;;;;;5062870;28;20040;-66
2021/09/24 06:36:52;;;;;;;3.08;0.40;;;;;;;;;;5069959;28;20017;-66
2021/09/24 06:39:19;;;;;;;1.95;0.50;;;;;;;;;;5069005;28;20078;-67
2021/09/24 06:41:46;;;;;;;0.90;0.40;;;;;;;;;;5075130;28;20037;-66
2021/09/24 06:44:14;;;;;;;1.27;0.52;;;;;;;;;;5071343;28;20029;-67
2021/09/24 06:46:41;;;;;;;2.90;0.63;;;;;;;;;;5062538;28;20014;-67
2021/09/24 06:49:08;;;;;;;1.02;0.30;;;;;;;;;;5064256;28;20020;-68
2021/09/24 06:51:35;;;;;;;1.60;0.50;;;;;;;;;;5059183;28;20029;-67
2021/09/24 06:54:03;;;;;;;1.10;0.45;;;;;;;;;;5059150;28;20025;-70
2021/09/24 06:56:30;;;;;;;2.33;0.70;;;;;;;;;;5069051;28;20024;-67
2021/09/24 06:59:00;;;;;;;2.30;0.65;;;;;;;;;;5069050;28;20035;-67
2021/09/24 07:01:30;;;;;;;3.72;0.80;;;;;;;;;;5070863;28;20032;-65
2021/09/24 07:03:58;;;;;;;0.73;0.50;;;;;;;;;;5067792;28;20211;-65
2021/09/24 07:06:25;;;;;;;2.97;0.70;;;;;;;;;;5070069;28;20038;-66
2021/09/24 07:08:52;;;;;;;2.40;0.70;;;;;;;;;;5066316;28;20029;-65
2021/09/24 07:11:20;;;;;;;2.58;0.70;;;;;;;;;;5062309;28;20017;-65
2021/09/24 07:13:47;;;;;;;0.85;0.50;;;;;;;;;;5070494;28;20120;-67
2021/09/24 07:16:14;;;;;;;1.15;0.40;;;;;;;;;;5063750;28;20013;-66
2021/09/24 07:18:41;;;;;;;1.23;0.47;;;;;;;;;;5070946;28;20017;-66
2021/09/24 07:21:10;;;;;;;2.75;0.50;;;;;;;;;;5062767;28;20029;-66
2021/09/24 07:23:37;;;;;;;3.47;1.17;;;;;;;;;;5063773;28;20097;-69
2021/09/24 07:26:05;;;;;;;5.20;1.15;;;;;;;;;;5061903;28;20029;-66
2021/09/24 07:28:32;;;;;;;0.88;0.63;;;;;;;;;;5067479;28;20025;-66
2021/09/24 07:30:59;;;;;;;0.85;0.70;;;;;;;;;;5066276;28;20029;-66
2021/09/24 07:33:26;;;;;;;4.25;0.63;;;;;;;;;;5067192;28;20034;-65
2021/09/24 07:35:53;;;;;;;0.75;0.60;;;;;;;;;;5062925;28;20021;-65
2021/09/24 07:38:21;;;;;;;0.98;0.60;;;;;;;;;;5069925;28;20045;-66
2021/09/24 07:40:50;;;;;;;1.52;0.75;;;;;;;;;;5074068;28;20029;-66
2021/09/24 07:43:17;;;;;;;2.15;0.80;;;;;;;;;;5067031;28;20021;-69
2021/09/24 07:45:44;;;;;;;4.25;0.85;;;;;;;;;;5054858;28;20117;-70
2021/09/24 07:48:12;;;;;;;5.55;0.80;;;;;;;;;;5042114;28;20108;-69
2021/09/24 07:50:39;;;;;;;6.25;1.40;;;;;;;;;;5042779;28;20033;-71
2021/09/24 07:53:06;;;;;;;5.43;1.33;;;;;;;;;;5046653;28;20474;-72
2021/09/24 07:55:33;;;;;;;0.93;0.70;;;;;;;;;;5040837;28;20017;-68
2021/09/24 07:58:01;;;;;;;1.42;0.75;;;;;;;;;;5051654;28;20025;-69
2021/09/24 08:00:29;;;;;;;2.25;1.10;;;;;;;;;;5035642;28;20037;-68
2021/09/24 08:02:56;;;;;;;8.57;1.20;;;;;;;;;;5035498;28;20041;-70
2021/09/24 08:05:23;;;;;;;2.92;0.95;;;;;;;;;;5033267;28;20022;-69
2021/09/24 08:07:50;;;;;;;2.42;1.00;;;;;;;;;;5044301;28;20025;-69
2021/09/24 08:10:17;;;;;;;3.10;1.05;;;;;;;;;;5052629;28;20108;-69
2021/09/24 08:12:44;;;;;;;1.75;1.10;;;;;;;;;;5063623;28;20092;-69
2021/09/24 08:15:11;;;;;;;2.42;1.08;;;;;;;;;;5049035;28;20036;-68
2021/09/24 08:17:39;;;;;;;3.30;1.00;;;;;;;;;;5069204;28;20053;-67
2021/09/24 08:20:07;;;;;;;3.05;1.20;;;;;;;;;;5064723;28;20038;-68
2021/09/24 08:22:38;;;;;;;1.63;1.10;;;;;;;;;;5065470;28;20056;-70
2021/09/24 08:25:12;;;;;;;1.80;1.10;;;;;;;;;;5059574;28;20078;-70
2021/09/24 08:27:40;;;;;;;2.10;1.00;;;;;;;;;;5059258;28;20067;-67
2021/09/24 08:30:09;;;;;;;1.92;1.48;;;;;;;;;;5067574;28;20032;-68
2021/09/24 08:32:39;;;;;;;2.70;1.20;;;;;;;;;;5052509;28;20017;-68
2021/09/24 08:35:07;;;;;;;1.48;1.38;;;;;;;;;;5054356;28;20725;-70
2021/09/24 08:37:34;;;;;;;3.08;1.20;;;;;;;;;;5063442;28;20045;-69
2021/09/24 08:40:01;;;;;;;2.05;1.15;;;;;;;;;;5051412;28;20096;-68
2021/09/24 08:42:28;;;;;;;1.75;1.38;;;;;;;;;;5053884;28;20021;-68
2021/09/24 08:44:55;;;;;;;1.23;1.10;;;;;;;;;;5056525;28;20026;-69
2021/09/24 08:47:24;;;;;;;2.78;1.30;;;;;;;;;;5059789;28;20073;-69
2021/09/24 08:49:51;;;;;;;3.42;1.40;;;;;;;;;;5059221;28;20036;-68
2021/09/24 08:52:18;;;;;;;2.10;1.38;;;;;;;;;;5067009;28;20021;-68
2021/09/24 08:54:45;;;;;;;3.63;1.58;;;;;;;;;;5068664;28;20005;-68
2021/09/24 08:57:16;;;;;;;3.40;1.27;;;;;;;;;;5067771;28;20033;-68
2021/09/24 08:59:43;;;;;;;2.25;1.38;;;;;;;;;;5059204;28;20043;-68
2021/09/24 09:02:10;;;;;;;2.75;1.40;;;;;;;;;;5054651;28;20431;-68
2021/09/24 09:04:39;;;;;;;1.50;1.17;;;;;;;;;;5059872;28;20060;-68
2021/09/24 09:07:10;;;;;;;1.73;1.10;;;;;;;;;;5062713;28;20480;-68
2021/09/24 09:09:39;;;;;;;1.50;1.10;;;;;;;;;;5075624;28;20027;-68
2021/09/24 09:12:13;;;;;;;5.63;1.50;;;;;;;;;;5071874;28;20093;-68
2021/09/24 09:14:41;;;;;;;2.92;1.55;;;;;;;;;;5077325;28;20017;-66
2021/09/24 09:17:27;;;;;;;4.32;1.60;;;;;;;;;;5076379;28;20016;-67
2021/09/24 09:20:12;;;;;;;4.20;1.80;;;;;;;;;;5070775;28;20025;-67
2021/09/24 09:22:40;;;;;;;4.57;1.80;;;;;;;;;;5073906;28;20034;-68
2021/09/24 09:25:13;;;;;;;2.47;1.55;;;;;;;;;;5071258;28;20017;-66
2021/09/24 09:27:40;;;;;;;3.85;1.60;;;;;;;;;;5078347;28;20076;-68
2021/09/24 09:30:14;;;;;;;3.70;1.45;;;;;;;;;;5077486;28;20017;-67
2021/09/24 09:32:42;;;;;;;3.00;1.70;;;;;;;;;;5066176;28;20005;-69
2021/09/24 09:35:10;;;;;;;2.40;1.20;;;;;;;;;;5080193;28;20037;-68
2021/09/24 09:37:38;;;;;;;4.05;1.63;;;;;;;;;;5079205;28;20059;-68
2021/09/24 09:40:10;;;;;;;2.95;1.77;;;;;;;;;;5067947;28;20031;-68
2021/09/24 09:42:38;;;;;;;2.17;1.67;;;;;;;;;;5079268;28;20044;-67
2021/09/24 09:45:06;;;;;;;4.35;1.90;;;;;;;;;;5064850;28;20032;-68
2021/09/24 09:47:35;;;;;;;7.55;3.33;;;;;;;;;;5076689;28;20005;-68
2021/09/24 09:50:07;;;;;;;6.63;2.70;;;;;;;;;;5075476;28;20039;-68
2021/09/24 09:52:34;;;;;;;7.50;3.50;;;;;;;;;;5072635;28;20029;-67
2021/09/24 09:55:03;;;;;;;8.30;3.83;;;;;;;;;;5060209;28;20032;-68
2021/09/24 09:57:36;;;;;;;9.75;5.57;;;;;;;;;;5062377;28;20018;-67
2021/09/24 10:00:04;;;;;;;9.10;5.65;;;;;;;;;;5075530;28;20112;-68
2021/09/24 10:02:33;;;;;;;11.25;5.97;;;;;;;;;;5077668;28;20044;-68
2021/09/24 10:05:01;;;;;;;9.30;5.35;;;;;;;;;;5074378;28;20042;-67
2021/09/24 10:07:29;;;;;;;5.85;4.10;;;;;;;;;;5067178;28;20013;-67
2021/09/24 10:10:05;;;;;;;5.97;3.65;;;;;;;;;;5068448;28;20025;-67
2021/09/24 10:12:32;;;;;;;6.47;3.42;;;;;;;;;;5078220;28;20044;-68
2021/09/24 10:14:59;;;;;;;9.40;3.10;;;;;;;;;;5076653;28;20035;-67
2021/09/24 10:17:27;;;;;;;5.97;2.47;;;;;;;;;;5067323;28;20086;-67
2021/09/24 10:19:55;;;;;;;6.57;2.20;;;;;;;;;;5069626;28;20029;-67
2021/09/24 10:22:24;;;;;;;3.50;2.03;;;;;;;;;;5064717;28;20018;-68
2021/09/24 10:24:52;;;;;;;3.38;1.77;;;;;;;;;;5072044;28;20014;-68
2021/09/24 10:27:22;;;;;;;2.03;1.15;;;;;;;;;;5068955;28;20021;-68
2021/09/24 10:29:50;;;;;;;3.63;1.73;;;;;;;;;;5062894;28;20073;-67
2021/09/24 10:32:27;;;;;;;2.97;1.60;;;;;;;;;;5059816;28;20021;-67
2021/09/24 10:35:00;;;;;;;2.95;1.50;;;;;;;;;;5073487;28;20013;-67
2021/09/24 10:37:28;;;;;;;2.70;1.67;;;;;;;;;;5069484;28;20009;-67
2021/09/24 10:39:59;;;;;;;4.18;1.42;;;;;;;;;;5077271;28;20061;-67
2021/09/24 10:42:35;;;;;;;5.00;1.65;;;;;;;;;;5068910;28;20028;-67
2021/09/24 10:45:02;;;;;;;4.13;1.25;;;;;;;;;;5070991;28;20025;-68
2021/09/24 10:47:48;;;;;;;2.22;1.23;;;;;;;;;;5077757;28;20009;-67
2021/09/24 10:50:34;;;;;;;2.25;1.38;;;;;;;;;;5078873;28;20040;-67
2021/09/24 10:53:19;;;;;;;3.00;1.30;;;;;;;;;;5067455;28;20048;-68
2021/09/24 10:55:55;;;;;;;1.83;1.17;;;;;;;;;;5065606;28;20017;-68
2021/09/24 10:58:22;;;;;;;3.35;1.23;;;;;;;;;;5063139;28;20017;-67
2021/09/24 11:00:51;;;;;;;3.03;1.05;;;;;;;;;;5059344;28;20042;-68
2021/09/24 11:03:20;;;;;;;2.22;1.35;;;;;;;;;;5059262;28;20013;-67
2021/09/24 11:05:54;;;;;;;1.40;0.80;;;;;;;;;;5069962;28;20057;-67
2021/09/24 11:08:38;;;;;;;3.92;1.33;;;;;;;;;;5070938;28;20017;-68
2021/09/24 11:11:13;;;;;;;1.63;0.93;;;;;;;;;;5060002;28;20160;-67
2021/09/24 11:13:43;;;;;;;3.58;0.85;;;;;;;;;;5074802;28;20030;-67
2021/09/24 11:16:12;;;;;;;2.60;1.25;;;;;;;;;;5076504;28;20091;-67
2021/09/24 11:18:50;;;;;;;2.22;0.80;;;;;;;;;;5074940;28;20021;-68
2021/09/24 11:21:18;;;;;;;1.40;0.90;;;;;;;;;;5063562;28;20060;-66
2021/09/24 11:23:45;;;;;;;3.60;0.90;;;;;;;;;;5066679;28;20014;-66
2021/09/24 11:26:14;;;;;;;2.13;0.75;;;;;;;;;;5070161;28;20028;-65
2021/09/24 11:28:43;;;;;;;3.42;1.17;;;;;;;;;;5072126;28;20048;-66
2021/09/24 11:31:10;;;;;;;2.17;1.20;;;;;;;;;;5063951;28;20021;-67
2021/09/24 11:33:43;;;;;;;2.58;0.65;;;;;;;;;;5065324;28;20104;-66
2021/09/24 11:36:11;;;;;;;3.78;0.90;;;;;;;;;;5069857;28;20025;-66
2021/09/24 11:38:38;;;;;;;4.03;1.10;;;;;;;;;;5068458;28;20561;-66
2021/09/24 11:41:05;;;;;;;2.03;1.10;;;;;;;;;;5061381;28;20021;-66
2021/09/24 11:43:39;;;;;;;2.35;0.85;;;;;;;;;;5063646;28;20040;-66
2021/09/24 11:46:06;;;;;;;;;;;;;;;;;;5067731;28;20029;-66
2021/09/24 11:48:34;;;;;;;3.38;0.73;;;;;;;;;;5073375;28;19901;-66
2021/09/24 11:51:19;;;;;;;2.55;0.70;;;;;;;;;;5069730;28;20012;-67
2021/09/24 11:53:54;;;;;;;1.67;0.80;;;;;;;;;;5061576;28;20010;-67
2021/09/24 11:56:31;;;;;;;3.30;0.65;;;;;;;;;;5066439;28;20013;-67
2021/09/24 11:59:06;;;;;;;1.98;0.50;;;;;;;;;;5061835;28;20033;-67
2021/09/24 12:01:33;;;;;;;1.60;0.85;;;;;;;;;;5065728;28;21731;-66
2021/09/24 12:04:01;;;;;;;4.38;1.27;;;;;;;;;;5068362;28;20040;-66
2021/09/24 12:06:33;;;;;;;2.38;0.80;;;;;;;;;;5061867;28;20586;-66
2021/09/24 12:09:05;;;;;;;4.10;0.63;;;;;;;;;;5069123;28;20017;-66
2021/09/24 12:11:41;;;;;;;3.05;0.80;;;;;;;;;;5067356;28;20093;-66
2021/09/24 12:14:09;;;;;;;1.55;0.80;;;;;;;;;;5070518;28;20089;-66
2021/09/24 12:16:41;;;;;;;1.67;1.02;;;;;;;;;;5068526;28;20060;-66
2021/09/24 12:19:15;;;;;;;2.20;0.80;;;;;;;;;;5067525;28;20057;-67
2021/09/24 12:21:48;;;;;;;1.30;0.70;;;;;;;;;;5057925;28;20044;-66
2021/09/24 12:24:17;;;;;;;2.80;0.77;;;;;;;;;;5064083;28;20040;-66
2021/09/24 12:26:46;;;;;;;1.75;0.90;;;;;;;;;;5062017;28;20400;-67
2021/09/24 12:29:27;;;;;;;1.98;0.70;;;;;;;;;;5067111;28;20032;-66
2021/09/24 12:31:55;;;;;;;2.20;0.80;;;;;;;;;;5061391;28;20041;-67
2021/09/24 12:34:24;;;;;;;4.18;0.70;;;;;;;;;;5069969;28;20077;-67
2021/09/24 12:36:51;;;;;;;1.70;0.70;;;;;;;;;;5062298;28;20065;-67
2021/09/24 12:39:20;;;;;;;1.67;0.95;;;;;;;;;;5067314;28;20092;-67
2021/09/24 12:41:48;;;;;;;1.30;0.80;;;;;;;;;;5062803;28;20025;-66
2021/09/24 12:44:15;;;;;;;2.58;0.75;;;;;;;;;;5068100;28;20009;-68
2021/09/24 12:46:44;;;;;;;1.60;0.60;;;;;;;;;;5064879;28;20032;-66
2021/09/24 12:49:11;;;;;;;3.78;1.10;;;;;;;;;;5058977;28;20032;-67
2021/09/24 12:51:39;;;;;;;2.58;0.90;;;;;;;;;;5060030;28;20029;-67
2021/09/24 12:54:06;;;;;;;2.00;0.90;;;;;;;;;;5066861;28;20017;-67
2021/09/24 12:56:34;;;;;;;1.55;0.85;;;;;;;;;;5069799;28;20013;-67
2021/09/24 12:59:02;;;;;;;2.03;0.98;;;;;;;;;;5066303;28;20101;-67
2021/09/24 13:01:30;;;;;;;2.42;0.73;;;;;;;;;;5067435;28;20116;-67
2021/09/24 13:03:57;;;;;;;2.35;1.02;;;;;;;;;;5064723;28;20075;-66
2021/09/24 13:06:26;;;;;;;3.45;0.70;;;;;;;;;;5065134;28;20044;-67
2021/09/24 13:08:54;;;;;;;2.25;0.65;;;;;;;;;;5068061;28;20024;-67
2021/09/24 13:11:25;;;;;;;2.47;0.50;;;;;;;;;;5060288;28;20009;-66
2021/09/24 13:13:56;;;;;;;2.80;0.60;;;;;;;;;;5075316;28;19998;-66
2021/09/24 13:16:29;;;;;;;2.83;0.60;;;;;;;;;;5069033;28;20022;-66
2021/09/24 13:18:57;;;;;;;1.83;0.68;;;;;;;;;;5070534;28;20061;-66
2021/09/24 13:21:28;;;;;;;4.88;0.60;;;;;;;;;;5062067;28;20040;-66
2021/09/24 13:23:56;;;;;;;0.90;0.50;;;;;;;;;;5058590;28;20064;-66
2021/09/24 13:26:23;;;;;;;1.52;0.60;;;;;;;;;;5060171;28;20029;-67
2021/09/24 13:28:51;;;;;;;2.13;0.77;;;;;;;;;;5064268;28;20033;-67
2021/09/24 13:31:20;;;;;;;1.23;0.60;;;;;;;;;;5060421;28;20014;-68
2021/09/24 13:33:48;;;;;;;1.45;0.52;;;;;;;;;;5058878;28;20032;-66
2021/09/24 13:36:15;;;;;;;1.02;0.60;;;;;;;;;;5062530;28;20016;-66
2021/09/24 13:38:42;;;;;;;2.70;0.65;;;;;;;;;;5071582;28;20079;-66
2021/09/24 13:41:09;;;;;;;2.63;0.57;;;;;;;;;;5060960;28;20116;-66
2021/09/24 13:43:36;;;;;;;5.15;0.68;;;;;;;;;;5069531;28;20048;-66
2021/09/24 13:46:04;;;;;;;1.65;0.60;;;;;;;;;;5063009;28;20048;-66
2021/09/24 13:48:31;;;;;;;2.33;0.60;;;;;;;;;;5072102;28;20005;-66
2021/09/24 13:50:58;;;;;;;1.92;0.50;;;;;;;;;;5067746;28;20048;-66
2021/09/24 13:53:25;;;;;;;4.57;0.70;;;;;;;;;;5061926;28;20037;-66
2021/09/24 13:55:53;;;;;;;1.50;0.68;;;;;;;;;;5070712;28;20013;-67
2021/09/24 13:58:20;;;;;;;1.00;0.45;;;;;;;;;;5067588;28;20041;-66
2021/09/24 14:00:47;;;;;;;3.30;0.68;;;;;;;;;;5072471;28;20025;-66
2021/09/24 14:03:14;;;;;;;3.85;0.90;;;;;;;;;;5069066;28;20018;-66
2021/09/24 14:05:41;;;;;;;1.23;0.45;;;;;;;;;;5071779;28;20048;-66
2021/09/24 14:08:08;;;;;;;2.35;0.80;;;;;;;;;;5068890;28;20028;-66
2021/09/24 14:10:36;;;;;;;1.90;0.80;;;;;;;;;;5067958;28;20028;-66
2021/09/24 14:13:03;;;;;;;2.75;0.73;;;;;;;;;;5069826;28;20013;-66
2021/09/24 14:15:30;;;;;;;1.95;0.60;;;;;;;;;;5068973;28;20029;-67
2021/09/24 14:17:58;;;;;;;2.17;0.73;;;;;;;;;;5064438;28;20024;-67
2021/09/24 14:20:25;;;;;;;0.80;0.50;;;;;;;;;;5070173;28;20151;-66
2021/09/24 14:22:53;;;;;;;1.50;1.00;;;;;;;;;;5069993;28;20022;-67
2021/09/24 14:25:20;;;;;;;1.50;0.70;;;;;;;;;;5072349;28;20077;-67
2021/09/24 14:27:48;;;;;;;1.50;0.50;;;;;;;;;;5061931;28;20073;-66
2021/09/24 14:30:17;;;;;;;0.60;0.43;;;;;;;;;;5066688;28;20014;-66
2021/09/24 14:32:44;;;;;;;2.38;0.52;;;;;;;;;;5072291;28;20040;-66
2021/09/24 14:35:12;;;;;;;2.85;0.47;;;;;;;;;;5070300;28;20020;-67
2021/09/24 14:37:39;;;;;;;1.85;0.77;;;;;;;;;;5065706;28;20026;-66
2021/09/24 14:40:07;;;;;;;1.73;0.50;;;;;;;;;;5075452;28;20025;-66
2021/09/24 14:42:35;;;;;;;2.58;0.60;;;;;;;;;;5068813;28;20040;-66
2021/09/24 14:45:02;;;;;;;2.38;0.93;;;;;;;;;;5068875;28;20013;-66
2021/09/24 14:47:29;;;;;;;1.85;0.75;;;;;;;;;;5064442;28;20025;-66
2021/09/24 14:49:56;;;;;;;2.03;0.75;;;;;;;;;;5069975;28;20044;-66